Grand Canyon National Park, AZ

10:07 PM MST on Oktober 25, 2014 (GMT -0700)
KAZGRAND3 | Change Station
CLOSE
Current Station
Personal Weather Stations
Location: Grand Canyon, AZ
Elevation: 6991 ft
Nearby Weather Stations

Elev 6991 ft 36.05 °N, 112.12 °W | Updated 13 seconds ago

Klart
Klart
52.2 °F
Feels Like 52.2 °F
N
2.0
Vind Växlande Vind from S/SV
Gusts 6.0 miles/tim

Idag
High -- | Low -- °F
--% Chance of Precip.
Yesterday
High -- | Low -- °F
Precip. -- tum
6:44 AM 5:40 PM
Första kvarteret, 6% visible
Lufttryck 30.06 tum
Sikt 10.0 miles
Molnigt Few 4800 ft
Daggpunkt 41 °F
Luftfuktighet 65%
Rainfall 0.00 tum
Snow Depth Not available.
UV 0 out of 12
Pollen 4.50 out of 12
Air Quality Not available.
Flu Activity No Activity
METAR KGCN 260454Z AUTO 00000KT 10SM FEW048 05/01 A3024 RMK AO2 SLP178 T00500011

More Conditions Fewer Conditions

Lufttryck 30.06 tum
Sikt 10.0 miles
Molnigt Few 4800 ft
Daggpunkt 41 °F
Luftfuktighet 65%
Rainfall 0.00 tum
Snow Depth Not available.
UV 0 out of 12
Pollen 4.50 out of 12
Air Quality Not available.
Flu Activity No Activity
METAR KGCN 260454Z AUTO 00000KT 10SM FEW048 05/01 A3024 RMK AO2 SLP178 T00500011

More Conditions Fewer Conditions

10-Day Weather Forecast

Almanac

Astronomi

Oct. 25, 2014 Rise Set
Actual Time 6:44 AM MST 5:40 PM MST
Civil Twilight 6:18 AM MST 6:06 PM MST
Nautical Twilight 5:48 AM MST 6:36 PM MST
Astronomical Twilight 5:18 AM MST 7:06 PM MST
Månen 8:24 AM MST (10/25) 7:08 PM MST (10/25)
Length Of Visible Light 11h 48m
Dagens längd
10h 55m
Tomorrow will be 2m 5s shorter.
Första kvarteret, 6% of the Moon is Illuminated
Oct 26
Första kvarteret
Oct 30
Första kvarteret
Nov 6
Fullmåne
Nov 14
Sista kvarteret
Nov 22
New

Yesterday's Extremes

State Highs State Lows

Community

WunderPhotos

Upload Photos

1,765,111 photos uploaded!

Nearby

Snödjup

Station Depth Elevation
White Horse Lake 0 in 7180 ft
Mormon Mountain 0 in 7500 ft
Baker Butte 0 in 7300 ft
Promontory 0 in 7930 ft
Workman Creek 0 in 6900 ft

Earthquake Activity

Stad Distance Mag. Time & Date
No recent earthquake activity has been reported nearby.
Minimum magnitude displayed is 2.5.

Coastal Water Temperatures

Plats Temperatur
No Stations Reporting

Nearby Weather Stations